createdAt,value
2019-04-22T00:03:49.733Z,20.33
2019-04-22T00:09:15.969Z,16.17
2019-04-22T00:14:14.997Z,16.40
2019-04-22T00:19:38.868Z,15.47
2019-04-22T00:24:38.792Z,17.87
2019-04-22T00:30:01.779Z,18.03
2019-04-22T00:34:53.694Z,19.10
2019-04-22T00:40:07.308Z,15.27
2019-04-22T00:45:19.418Z,18.30
2019-04-22T00:55:43.725Z,15.67
2019-04-22T01:00:44.451Z,16.23
2019-04-22T01:05:55.402Z,14.53
2019-04-22T01:11:11.267Z,15.50
2019-04-22T01:16:17.515Z,13.93
2019-04-22T01:21:28.903Z,15.40
2019-04-22T01:26:30.036Z,12.53
2019-04-22T01:31:23.976Z,12.47
2019-04-22T01:36:48.667Z,12.57
2019-04-22T01:47:21.401Z,13.03
2019-04-22T01:52:20.438Z,11.53
2019-04-22T01:57:31.737Z,13.27
2019-04-22T02:02:44.088Z,13.67
2019-04-22T02:07:49.046Z,12.10
2019-04-22T02:13:03.120Z,10.47
2019-04-22T02:18:18.099Z,12.50
2019-04-22T02:28:40.085Z,12.20
2019-04-22T02:39:05.732Z,13.83
2019-04-22T02:44:13.873Z,12.30
2019-04-22T02:59:44.937Z,13.23
2019-04-22T03:04:56.916Z,12.40
2019-04-22T03:09:57.787Z,16.23
2019-04-22T03:15:01.442Z,12.77
2019-04-22T03:20:14.226Z,16.67
2019-04-22T03:25:51.511Z,16.33
2019-04-22T03:35:55.629Z,14.20
2019-04-22T03:41:22.165Z,17.47
2019-04-22T03:46:03.828Z,16.87
2019-04-22T03:51:16.398Z,14.30
2019-04-22T03:56:59.129Z,13.63
2019-04-22T04:01:36.653Z,11.37
2019-04-22T04:06:52.525Z,13.57
2019-04-22T04:22:18.851Z,12.60
2019-04-22T04:32:39.373Z,15.93
2019-04-22T04:42:46.272Z,14.53
2019-04-22T04:48:01.016Z,14.90
2019-04-22T05:08:39.089Z,18.43
2019-04-22T05:24:00.035Z,16.33
2019-04-22T05:29:05.587Z,14.10
2019-04-22T05:34:08.473Z,13.93
2019-04-22T05:39:17.226Z,11.83
2019-04-22T05:44:32.563Z,10.23
2019-04-22T05:49:35.088Z,11.83
2019-04-22T05:54:47.119Z,12.53
2019-04-22T06:05:07.756Z,11.17
2019-04-22T06:10:21.416Z,10.63
2019-04-22T06:15:23.356Z,10.27
2019-04-22T06:20:38.389Z,8.20
2019-04-22T06:25:57.553Z,8.67
2019-04-22T06:30:57.455Z,7.57
2019-04-22T06:36:03.693Z,7.03
2019-04-22T06:41:14.027Z,12.43
2019-04-22T06:46:25.696Z,6.93
2019-04-22T06:51:35.652Z,6.93
2019-04-22T06:56:42.659Z,8.80
2019-04-22T07:01:59.380Z,7.03
2019-04-22T07:07:03.357Z,7.00
2019-04-22T07:12:12.086Z,6.83
2019-04-22T07:17:24.630Z,7.73
2019-04-22T07:22:38.949Z,6.13
2019-04-22T07:27:40.523Z,8.00
2019-04-22T07:33:04.569Z,5.37
2019-04-22T07:38:00.311Z,7.00
2019-04-22T07:43:13.753Z,7.60
2019-04-22T07:48:26.533Z,5.90
2019-04-22T07:53:26.186Z,5.73
2019-04-22T07:58:35.987Z,7.17
2019-04-22T08:03:51.608Z,5.87
2019-04-22T08:08:58.507Z,8.07
2019-04-22T08:13:58.745Z,7.93
2019-04-22T08:19:16.975Z,7.57
2019-04-22T08:24:22.775Z,8.20
2019-04-22T08:29:37.104Z,7.40
2019-04-22T08:34:40.818Z,10.67
2019-04-22T08:39:49.994Z,8.80
2019-04-22T08:50:08.791Z,7.10
2019-04-22T08:55:18.975Z,11.47
2019-04-22T09:00:32.239Z,9.37
2019-04-22T09:05:53.529Z,6.53
2019-04-22T09:10:44.692Z,8.37
2019-04-22T09:15:49.122Z,6.53
2019-04-22T09:26:16.633Z,6.80
2019-04-22T09:31:19.607Z,4.10
2019-04-22T09:41:41.169Z,5.60
2019-04-22T09:46:47.109Z,8.33
2019-04-22T09:51:58.221Z,4.33
2019-04-22T09:57:09.546Z,7.10
2019-04-22T10:07:30.455Z,6.33
2019-04-22T10:12:36.691Z,4.03
2019-04-22T10:17:47.298Z,6.25
2019-04-22T10:22:54.766Z,4.00
2019-04-22T10:28:09.205Z,4.92
2019-04-22T10:33:05.780Z,7.72
2019-04-22T10:37:56.556Z,4.70
2019-04-22T10:43:05.290Z,4.80
2019-04-22T10:48:14.562Z,6.55
2019-04-22T10:53:23.719Z,4.28
2019-04-22T10:58:32.752Z,4.55
2019-04-22T11:03:41.535Z,7.28
2019-04-22T11:08:54.416Z,5.10
2019-04-22T11:13:58.195Z,4.53
2019-04-22T11:19:05.755Z,4.90
2019-04-22T11:24:14.760Z,3.02
2019-04-22T11:29:23.766Z,4.60
2019-04-22T11:34:31.342Z,3.45
2019-04-22T11:39:38.934Z,2.00
2019-04-22T11:44:47.531Z,4.03
2019-04-22T11:49:55.179Z,2.87
2019-04-22T11:55:04.545Z,2.35
2019-04-22T12:00:14.711Z,10.68
2019-04-22T12:05:23.703Z,9.43
2019-04-22T12:10:40.245Z,2.52
2019-04-22T12:15:40.865Z,2.20
2019-04-22T12:20:48.369Z,4.05
2019-04-22T12:26:02.047Z,4.45
2019-04-22T12:31:05.805Z,4.08
2019-04-22T12:36:14.758Z,3.02
2019-04-22T12:41:23.604Z,2.60
2019-04-22T12:46:32.366Z,3.87
2019-04-22T12:51:40.980Z,4.72
2019-04-22T12:56:48.562Z,2.40
2019-04-22T13:01:56.952Z,3.83
2019-04-22T13:07:06.159Z,2.67
2019-04-22T13:12:14.834Z,6.95
2019-04-22T13:17:23.137Z,2.25
2019-04-22T13:22:30.730Z,2.42
2019-04-22T13:27:39.272Z,2.95
2019-04-22T13:32:47.177Z,4.33
2019-04-22T13:37:54.974Z,8.38
2019-04-22T13:43:02.789Z,2.42
2019-04-22T13:48:29.664Z,2.20
2019-04-22T13:58:40.977Z,4.92
2019-04-22T14:04:00.735Z,4.60
2019-04-22T14:09:11.555Z,4.28
2019-04-22T14:14:20.033Z,2.40
2019-04-22T14:19:27.903Z,6.45
2019-04-22T14:24:36.444Z,3.65
2019-04-22T14:29:43.981Z,3.95
2019-04-22T14:34:51.378Z,3.40
2019-04-22T14:40:00.114Z,3.15
2019-04-22T14:46:00.274Z,4.45
2019-04-22T14:50:40.267Z,6.08
2019-04-22T14:55:31.453Z,4.72
2019-04-22T15:00:37.952Z,5.97
2019-04-22T15:05:46.237Z,4.10
2019-04-22T15:10:54.087Z,4.03
2019-04-22T15:16:20.200Z,6.10
2019-04-22T15:21:28.915Z,3.03
2019-04-22T15:26:36.362Z,5.37
2019-04-22T15:31:45.014Z,6.07
2019-04-22T15:36:53.786Z,3.20
2019-04-22T15:42:11.765Z,4.53
2019-04-22T15:47:11.125Z,5.37
2019-04-22T15:52:18.989Z,3.27
2019-04-22T15:57:26.635Z,4.30
2019-04-22T16:02:34.142Z,3.10
2019-04-22T16:07:42.244Z,5.73
2019-04-22T16:12:57.613Z,5.70
2019-04-22T16:18:01.588Z,4.17
2019-04-22T16:23:42.388Z,3.40
2019-04-22T16:28:52.763Z,4.07
2019-04-22T16:33:59.178Z,9.53
2019-04-22T16:39:13.230Z,3.20
2019-04-22T16:44:22.891Z,6.73
2019-04-22T16:49:31.873Z,5.73
2019-04-22T16:54:40.045Z,5.03
2019-04-22T16:59:48.977Z,12.50
2019-04-22T17:05:05.487Z,6.43
2019-04-22T17:10:13.769Z,5.67
2019-04-22T17:15:22.556Z,4.50
2019-04-22T17:20:31.221Z,9.80
2019-04-22T17:25:38.815Z,6.20
2019-04-22T17:30:47.819Z,4.07
2019-04-22T17:35:55.105Z,4.20
2019-04-22T17:41:17.209Z,4.17
2019-04-22T17:46:33.689Z,6.97
2019-04-22T17:52:15.689Z,4.30
2019-04-22T17:57:19.308Z,5.43
2019-04-22T18:02:22.580Z,4.00
2019-04-22T18:07:35.494Z,6.67
2019-04-22T18:12:53.161Z,5.03
2019-04-22T18:17:55.596Z,6.03
2019-04-22T18:22:54.300Z,10.43
2019-04-22T18:33:21.173Z,6.70
2019-04-22T18:38:42.389Z,5.03
2019-04-22T18:43:42.293Z,5.70
2019-04-22T18:48:45.874Z,9.70
2019-04-22T18:54:10.351Z,5.00
2019-04-22T18:59:05.092Z,6.40
2019-04-22T19:04:11.633Z,6.47
2019-04-22T19:09:43.885Z,7.50
2019-04-22T19:14:55.211Z,5.37
2019-04-22T19:20:05.430Z,7.53
2019-04-22T19:25:04.127Z,8.23
2019-04-22T19:30:15.957Z,4.83
2019-04-22T19:35:21.339Z,9.03
2019-04-22T19:40:47.824Z,8.53
2019-04-22T19:45:45.999Z,7.87
2019-04-22T19:51:05.850Z,6.63
2019-04-22T19:56:01.509Z,7.60
2019-04-22T20:01:39.001Z,6.17
2019-04-22T20:06:47.598Z,6.37
2019-04-22T20:11:57.608Z,9.33
2019-04-22T20:17:00.468Z,6.97
2019-04-22T20:22:12.883Z,8.13
2019-04-22T20:27:34.380Z,6.60
2019-04-22T20:32:34.116Z,7.70
2019-04-22T20:37:45.761Z,8.50
2019-04-22T20:43:03.528Z,7.80
2019-04-22T20:47:53.841Z,11.27
2019-04-22T20:53:21.374Z,7.97
2019-04-22T20:58:21.137Z,11.23
2019-04-22T21:03:22.377Z,9.23
2019-04-22T21:08:36.993Z,11.10
2019-04-22T21:13:41.031Z,10.57
2019-04-22T21:18:47.370Z,12.90
2019-04-22T21:23:57.150Z,11.10
2019-04-22T21:29:13.329Z,11.07
2019-04-22T21:34:20.619Z,9.93
2019-04-22T21:39:33.784Z,12.17
2019-04-22T21:44:42.665Z,13.00
2019-04-22T21:50:09.854Z,11.97
2019-04-22T21:55:08.712Z,10.80
2019-04-22T22:00:17.621Z,11.83
2019-04-22T22:05:14.356Z,11.47
2019-04-22T22:10:29.692Z,11.60
2019-04-22T22:15:36.870Z,12.27
2019-04-22T22:20:59.843Z,11.73
2019-04-22T22:25:53.790Z,11.93
2019-04-22T22:31:13.376Z,11.13
2019-04-22T22:36:13.650Z,9.93
2019-04-22T22:41:01.532Z,10.20
2019-04-22T22:46:17.940Z,13.77
2019-04-22T22:51:52.125Z,11.13
2019-04-22T22:56:55.672Z,10.40
2019-04-22T23:01:54.558Z,11.33
2019-04-22T23:07:11.156Z,13.17
2019-04-22T23:12:25.147Z,11.70
2019-04-22T23:17:09.993Z,10.50
2019-04-22T23:22:25.275Z,11.67
2019-04-22T23:28:02.320Z,10.23
2019-04-22T23:33:09.862Z,12.20
2019-04-22T23:38:20.691Z,11.07
2019-04-22T23:43:38.959Z,13.77
2019-04-22T23:48:35.795Z,10.27
2019-04-22T23:59:06.893Z,11.80
